createdAt,value
2018-12-19T00:01:45.052Z,7.47
2018-12-19T00:04:12.524Z,7.54
2018-12-19T00:06:40.005Z,7.52
2018-12-19T00:09:07.671Z,7.43
2018-12-19T00:11:35.139Z,7.44
2018-12-19T00:14:02.666Z,7.41
2018-12-19T00:16:30.134Z,7.41
2018-12-19T00:18:57.599Z,7.49
2018-12-19T00:21:25.049Z,7.53
2018-12-19T00:23:52.516Z,7.72
2018-12-19T00:26:19.966Z,7.71
2018-12-19T00:28:47.400Z,7.60
2018-12-19T00:31:14.874Z,7.42
2018-12-19T00:33:42.343Z,7.32
2018-12-19T00:36:09.786Z,7.27
2018-12-19T00:38:37.259Z,7.25
2018-12-19T00:41:04.721Z,7.25
2018-12-19T00:43:32.200Z,7.23
2018-12-19T00:45:59.654Z,7.27
2018-12-19T00:48:27.121Z,7.25
2018-12-19T00:50:54.596Z,7.26
2018-12-19T00:53:22.040Z,7.29
2018-12-19T00:55:49.539Z,7.30
2018-12-19T00:58:17.015Z,7.42
2018-12-19T01:00:44.471Z,7.54
2018-12-19T01:03:11.950Z,7.57
2018-12-19T01:05:39.416Z,7.46
2018-12-19T01:08:06.880Z,7.33
2018-12-19T01:10:34.420Z,7.26
2018-12-19T01:13:01.900Z,7.22
2018-12-19T01:15:29.371Z,7.18
2018-12-19T01:17:56.835Z,7.13
2018-12-19T01:20:24.330Z,7.08
2018-12-19T01:22:51.825Z,7.12
2018-12-19T01:25:19.284Z,7.16
2018-12-19T01:27:46.726Z,7.22
2018-12-19T01:30:14.175Z,7.24
2018-12-19T01:32:41.610Z,7.44
2018-12-19T01:35:09.080Z,7.62
2018-12-19T01:37:36.559Z,7.60
2018-12-19T01:40:06.880Z,7.47
2018-12-19T01:42:34.387Z,7.30
2018-12-19T01:45:01.830Z,7.31
2018-12-19T01:47:29.312Z,7.25
2018-12-19T01:49:56.758Z,7.12
2018-12-19T01:52:24.347Z,7.06
2018-12-19T01:54:51.799Z,7.09
2018-12-19T01:57:19.270Z,7.19
2018-12-19T01:59:46.756Z,7.16
2018-12-19T02:02:14.294Z,7.12
2018-12-19T02:04:41.753Z,7.17
2018-12-19T02:07:09.220Z,7.27
2018-12-19T02:09:36.660Z,7.44
2018-12-19T02:12:04.249Z,7.53
2018-12-19T02:14:31.729Z,7.35
2018-12-19T02:16:59.201Z,7.29
2018-12-19T02:19:26.651Z,7.14
2018-12-19T02:21:54.118Z,7.12
2018-12-19T02:24:21.582Z,6.98
2018-12-19T02:26:49.039Z,7.02
2018-12-19T02:29:16.484Z,7.09
2018-12-19T02:31:43.965Z,7.17
2018-12-19T02:34:11.588Z,7.20
2018-12-19T02:36:39.011Z,7.20
2018-12-19T02:39:07.066Z,7.26
2018-12-19T02:41:34.633Z,7.29
2018-12-19T02:44:02.304Z,7.43
2018-12-19T02:46:29.785Z,7.58
2018-12-19T02:48:57.243Z,7.45
2018-12-19T02:51:24.704Z,7.20
2018-12-19T02:53:52.192Z,7.11
2018-12-19T02:56:19.604Z,6.97
2018-12-19T02:58:47.099Z,6.93
2018-12-19T03:01:14.562Z,6.92
2018-12-19T03:03:42.000Z,6.87
2018-12-19T03:06:09.465Z,6.81
2018-12-19T03:08:36.888Z,6.98
2018-12-19T03:11:04.345Z,7.11
2018-12-19T03:13:32.179Z,7.16
2018-12-19T03:15:59.679Z,7.13
2018-12-19T03:18:27.128Z,7.11
2018-12-19T03:20:54.625Z,7.16
2018-12-19T03:23:22.063Z,7.06
2018-12-19T03:25:49.544Z,6.94
2018-12-19T03:28:17.013Z,6.92
2018-12-19T03:30:44.465Z,6.69
2018-12-19T03:33:11.925Z,6.62
2018-12-19T03:35:39.398Z,6.66
2018-12-19T03:38:06.851Z,6.69
2018-12-19T03:40:34.554Z,6.79
2018-12-19T03:43:02.007Z,6.72
2018-12-19T03:45:29.473Z,6.73
2018-12-19T03:47:56.901Z,6.74
2018-12-19T03:50:24.353Z,6.77
2018-12-19T03:52:51.834Z,6.83
2018-12-19T03:55:19.279Z,6.98
2018-12-19T03:57:46.734Z,7.16
2018-12-19T04:00:14.219Z,7.07
2018-12-19T04:02:41.685Z,6.96
2018-12-19T04:05:09.354Z,6.76
2018-12-19T04:07:36.795Z,6.66
2018-12-19T04:10:05.569Z,6.67
2018-12-19T04:12:33.028Z,6.72
2018-12-19T04:15:00.448Z,6.85
2018-12-19T04:17:27.933Z,6.91
2018-12-19T04:19:55.359Z,6.98
2018-12-19T04:22:22.838Z,7.03
2018-12-19T04:24:50.301Z,7.09
2018-12-19T04:27:17.846Z,7.18
2018-12-19T04:29:45.691Z,7.23
2018-12-19T04:32:13.169Z,7.36
2018-12-19T04:34:40.623Z,7.36
2018-12-19T04:37:08.101Z,7.37
2018-12-19T04:39:35.548Z,7.17
2018-12-19T04:42:03.013Z,7.00
2018-12-19T04:44:30.471Z,7.06
2018-12-19T04:46:57.944Z,7.05
2018-12-19T04:49:25.525Z,7.12
2018-12-19T04:51:53.000Z,7.17
2018-12-19T04:54:20.488Z,7.25
2018-12-19T04:56:47.934Z,7.33
2018-12-19T04:59:15.415Z,7.45
2018-12-19T05:01:42.875Z,7.43
2018-12-19T05:04:10.455Z,7.51
2018-12-19T05:06:37.951Z,7.58
2018-12-19T05:09:06.501Z,7.81
2018-12-19T05:11:34.367Z,7.81
2018-12-19T05:14:01.836Z,7.64
2018-12-19T05:16:29.281Z,7.48
2018-12-19T05:18:56.755Z,7.38
2018-12-19T05:21:24.251Z,7.35
2018-12-19T05:23:51.744Z,7.38
2018-12-19T05:26:19.183Z,7.40
2018-12-19T05:28:46.655Z,7.34
2018-12-19T05:31:14.099Z,7.38
2018-12-19T05:33:41.570Z,7.37
2018-12-19T05:36:09.030Z,7.45
2018-12-19T05:38:36.494Z,7.55
2018-12-19T05:41:03.936Z,7.57
2018-12-19T05:43:31.415Z,7.77
2018-12-19T05:45:58.869Z,7.72
2018-12-19T05:48:26.335Z,7.62
2018-12-19T05:50:53.807Z,7.44
2018-12-19T05:53:21.274Z,7.30
2018-12-19T05:55:48.741Z,7.26
2018-12-19T05:58:16.284Z,7.13
2018-12-19T06:03:23.221Z,7.20
2018-12-19T06:05:50.650Z,7.25
2018-12-19T06:08:18.118Z,7.23
2018-12-19T06:10:45.568Z,7.31
2018-12-19T06:13:13.013Z,7.41
2018-12-19T06:15:40.463Z,7.37
2018-12-19T06:18:07.929Z,7.41
2018-12-19T06:20:35.378Z,7.54
2018-12-19T06:23:02.857Z,7.44
2018-12-19T06:25:30.296Z,7.31
2018-12-19T06:27:57.869Z,7.19
2018-12-19T06:30:25.625Z,7.06
2018-12-19T06:32:53.059Z,6.99
2018-12-19T06:35:20.534Z,7.06
2018-12-19T06:37:48.036Z,7.15
2018-12-19T06:40:15.505Z,7.16
2018-12-19T06:42:42.977Z,7.11
2018-12-19T06:45:10.419Z,7.12
2018-12-19T06:47:37.923Z,7.26
2018-12-19T06:50:06.885Z,7.33
2018-12-19T06:52:34.367Z,7.36
2018-12-19T06:55:01.858Z,7.60
2018-12-19T06:57:29.308Z,7.59
2018-12-19T06:59:56.803Z,7.49
2018-12-19T07:02:24.289Z,7.36
2018-12-19T07:04:51.763Z,7.21
2018-12-19T07:07:19.251Z,7.25
2018-12-19T07:09:46.685Z,7.34
2018-12-19T07:12:14.172Z,7.37
2018-12-19T07:14:41.769Z,7.43
2018-12-19T07:17:09.308Z,7.47
2018-12-19T07:19:36.770Z,7.55
2018-12-19T07:22:04.235Z,7.57
2018-12-19T07:24:31.700Z,7.67
2018-12-19T07:26:59.195Z,7.78
2018-12-19T07:29:26.633Z,7.84
2018-12-19T07:31:54.129Z,7.90
2018-12-19T07:34:21.563Z,7.80
2018-12-19T07:36:49.032Z,7.75
2018-12-19T07:39:16.843Z,7.69
2018-12-19T07:41:44.405Z,7.72
2018-12-19T07:44:11.894Z,7.64
2018-12-19T07:46:39.339Z,7.63
2018-12-19T07:49:06.817Z,7.70
2018-12-19T07:51:34.292Z,7.75
2018-12-19T07:54:01.782Z,7.84
2018-12-19T07:56:29.251Z,7.92
2018-12-19T07:58:56.710Z,8.06
2018-12-19T08:01:24.211Z,8.06
2018-12-19T08:03:51.747Z,8.12
2018-12-19T08:06:19.233Z,8.28
2018-12-19T08:08:46.710Z,8.21
2018-12-19T08:11:14.147Z,8.05
2018-12-19T08:13:41.618Z,8.02
2018-12-19T08:16:09.089Z,7.97
2018-12-19T08:18:36.638Z,7.94
2018-12-19T08:21:04.132Z,7.99
2018-12-19T08:23:31.560Z,8.02
2018-12-19T08:25:59.018Z,8.04
2018-12-19T08:28:26.462Z,8.03
2018-12-19T08:30:53.917Z,8.09
2018-12-19T08:33:22.351Z,8.10
2018-12-19T08:35:49.949Z,8.24
2018-12-19T08:38:17.432Z,8.35
2018-12-19T08:40:44.913Z,8.41
2018-12-19T08:43:12.388Z,8.65
2018-12-19T08:45:40.182Z,8.54
2018-12-19T08:48:07.662Z,8.47
2018-12-19T08:50:35.129Z,8.27
2018-12-19T08:53:02.808Z,8.19
2018-12-19T08:55:30.368Z,8.12
2018-12-19T08:57:57.813Z,8.23
2018-12-19T09:00:25.315Z,8.28
2018-12-19T09:02:52.737Z,8.37
2018-12-19T09:05:20.217Z,8.40
2018-12-19T09:07:47.690Z,8.48
2018-12-19T09:10:15.166Z,8.60
2018-12-19T09:12:42.644Z,8.70
2018-12-19T09:15:10.079Z,8.77
2018-12-19T09:17:37.553Z,8.96
2018-12-19T09:20:05.282Z,8.95
2018-12-19T09:22:32.849Z,8.86
2018-12-19T09:25:00.307Z,8.71
2018-12-19T09:27:27.764Z,8.70
2018-12-19T09:29:55.238Z,8.70
2018-12-19T09:32:22.681Z,8.74
2018-12-19T09:34:50.167Z,8.81
2018-12-19T09:37:17.626Z,8.96
2018-12-19T09:39:45.102Z,9.03
2018-12-19T09:42:12.573Z,8.97
2018-12-19T09:44:40.607Z,9.01
2018-12-19T09:47:08.062Z,9.14
2018-12-19T09:49:35.537Z,9.17
2018-12-19T09:52:03.112Z,9.27
2018-12-19T09:54:30.592Z,9.36
2018-12-19T09:56:58.792Z,9.35
2018-12-19T09:59:26.299Z,9.29
2018-12-19T10:01:53.741Z,9.22
2018-12-19T10:04:21.340Z,8.96
2018-12-19T10:06:48.856Z,8.91
2018-12-19T10:09:16.307Z,8.89
2018-12-19T10:11:43.795Z,9.04
2018-12-19T10:14:11.282Z,9.16
2018-12-19T10:16:38.704Z,9.33
2018-12-19T10:19:06.266Z,9.55
2018-12-19T10:21:34.753Z,9.81
2018-12-19T10:24:02.237Z,10.05
2018-12-19T10:26:29.695Z,10.35
2018-12-19T10:28:57.152Z,10.58
2018-12-19T10:31:24.660Z,10.48
2018-12-19T10:33:52.084Z,10.41
2018-12-19T10:36:21.556Z,10.35
2018-12-19T10:38:49.036Z,10.28
2018-12-19T10:41:16.653Z,10.39
2018-12-19T10:43:44.102Z,10.45
2018-12-19T10:46:11.576Z,10.50
2018-12-19T10:48:39.027Z,10.65
2018-12-19T10:51:06.497Z,10.77
2018-12-19T10:53:34.009Z,10.82
2018-12-19T10:56:01.457Z,11.10
2018-12-19T10:58:28.903Z,11.24
2018-12-19T11:00:59.675Z,11.51
2018-12-19T11:03:27.172Z,11.66
2018-12-19T11:05:54.643Z,11.67
2018-12-19T11:08:22.137Z,11.40
2018-12-19T11:10:49.668Z,11.13
2018-12-19T11:13:17.163Z,10.88
2018-12-19T11:15:45.612Z,10.71
2018-12-19T11:18:13.086Z,10.53
2018-12-19T11:20:40.548Z,10.35
2018-12-19T11:23:08.031Z,10.24
2018-12-19T11:25:35.481Z,10.27
2018-12-19T11:28:02.984Z,10.43
2018-12-19T11:30:30.453Z,10.45
2018-12-19T11:32:58.558Z,10.46
2018-12-19T11:35:26.023Z,10.58
2018-12-19T11:37:53.472Z,10.74
2018-12-19T11:40:20.942Z,10.94
2018-12-19T11:42:48.403Z,10.85
2018-12-19T11:45:15.906Z,10.67
2018-12-19T11:47:43.368Z,10.39
2018-12-19T11:50:10.828Z,10.16
2018-12-19T11:52:39.187Z,10.09
2018-12-19T11:55:06.849Z,10.06
2018-12-19T11:57:34.488Z,9.99
2018-12-19T12:00:02.153Z,10.10
2018-12-19T12:02:29.620Z,10.31
2018-12-19T12:04:57.065Z,10.40
2018-12-19T12:07:24.822Z,10.47
2018-12-19T12:09:52.279Z,10.55
2018-12-19T12:12:19.749Z,10.62
2018-12-19T12:14:47.234Z,10.81
2018-12-19T12:17:14.692Z,10.83
2018-12-19T12:19:42.178Z,10.72
2018-12-19T12:22:09.632Z,10.69
2018-12-19T12:24:37.106Z,10.53
2018-12-19T12:27:04.577Z,10.36
2018-12-19T12:29:32.063Z,10.36
2018-12-19T12:31:59.534Z,10.42
2018-12-19T12:34:26.999Z,10.44
2018-12-19T12:36:54.458Z,10.55
2018-12-19T12:39:21.919Z,10.67
2018-12-19T12:41:52.299Z,10.71
2018-12-19T12:44:18.927Z,10.70
2018-12-19T12:46:46.404Z,10.71
2018-12-19T12:49:13.917Z,10.83
2018-12-19T12:51:41.359Z,10.96
2018-12-19T12:54:08.833Z,10.83
2018-12-19T12:56:36.285Z,10.61
2018-12-19T12:59:04.037Z,10.50
2018-12-19T13:01:31.513Z,10.43
2018-12-19T13:03:59.022Z,10.37
2018-12-19T13:06:26.619Z,10.40
2018-12-19T13:08:54.079Z,10.42
2018-12-19T13:11:21.568Z,10.48
2018-12-19T13:13:49.028Z,10.53
2018-12-19T13:16:16.749Z,10.55
2018-12-19T13:18:44.189Z,10.60
2018-12-19T13:21:11.662Z,10.59
2018-12-19T13:23:39.138Z,10.69
2018-12-19T13:26:06.712Z,10.86
2018-12-19T13:28:34.163Z,10.92
2018-12-19T13:31:01.596Z,10.70
2018-12-19T13:33:29.084Z,10.54
2018-12-19T13:35:56.539Z,10.57
2018-12-19T13:38:24.024Z,10.46
2018-12-19T13:40:51.456Z,10.47
2018-12-19T13:43:18.953Z,10.45
2018-12-19T13:45:46.411Z,10.48
2018-12-19T13:48:14.191Z,10.56
2018-12-19T13:50:41.683Z,10.68
2018-12-19T13:53:09.131Z,10.77
2018-12-19T13:55:36.606Z,10.87
2018-12-19T13:58:06.982Z,10.93
2018-12-19T14:00:33.597Z,11.07
2018-12-19T14:03:01.059Z,11.22
2018-12-19T14:05:28.552Z,11.08
2018-12-19T14:07:56.041Z,10.93
2018-12-19T14:10:23.538Z,10.83
2018-12-19T14:12:51.024Z,10.72
2018-12-19T14:15:18.494Z,10.64
2018-12-19T14:17:45.978Z,10.57
2018-12-19T14:20:13.524Z,10.61
2018-12-19T14:22:41.003Z,10.68
2018-12-19T14:25:08.593Z,10.72
2018-12-19T14:27:36.049Z,10.67
2018-12-19T14:30:04.733Z,10.70
2018-12-19T14:32:32.183Z,10.80
2018-12-19T14:35:00.042Z,10.89
2018-12-19T14:37:27.518Z,11.00
2018-12-19T14:39:55.132Z,10.93
2018-12-19T14:42:22.592Z,10.82
2018-12-19T14:44:50.053Z,10.73
2018-12-19T14:47:17.538Z,10.55
2018-12-19T14:49:45.058Z,10.44
2018-12-19T14:52:12.628Z,10.35
2018-12-19T14:54:40.116Z,10.38
2018-12-19T14:57:07.598Z,10.38
2018-12-19T14:59:35.058Z,10.50
2018-12-19T15:02:02.542Z,10.64
2018-12-19T15:04:29.961Z,10.71
2018-12-19T15:06:57.451Z,10.79
2018-12-19T15:09:24.897Z,10.91
2018-12-19T15:11:52.373Z,11.07
2018-12-19T15:14:19.865Z,11.13
2018-12-19T15:16:47.331Z,10.95
2018-12-19T15:19:14.849Z,10.92
2018-12-19T15:21:42.321Z,10.82
2018-12-19T15:24:09.946Z,10.75
2018-12-19T15:26:37.387Z,10.56
2018-12-19T15:29:04.886Z,10.36
2018-12-19T15:31:32.352Z,10.29
2018-12-19T15:33:59.843Z,10.39
2018-12-19T15:36:27.685Z,10.48
2018-12-19T15:38:55.155Z,10.57
2018-12-19T15:41:23.147Z,10.63
2018-12-19T15:43:50.622Z,10.69
2018-12-19T15:46:18.073Z,10.77
2018-12-19T15:48:45.555Z,10.90
2018-12-19T15:51:13.010Z,10.79
2018-12-19T15:53:40.457Z,10.61
2018-12-19T15:56:07.922Z,10.51
2018-12-19T15:58:35.390Z,10.46
2018-12-19T16:01:02.995Z,10.36
2018-12-19T16:03:30.465Z,10.37
2018-12-19T16:05:57.955Z,10.41
2018-12-19T16:08:25.421Z,10.40
2018-12-19T16:10:52.900Z,10.46
2018-12-19T16:13:20.384Z,10.46
2018-12-19T16:15:47.841Z,10.49
2018-12-19T16:18:16.131Z,10.56
2018-12-19T16:20:43.600Z,10.63
2018-12-19T16:23:11.069Z,10.78
2018-12-19T16:25:38.539Z,10.80
2018-12-19T16:28:06.029Z,10.60
2018-12-19T16:30:33.511Z,10.48
2018-12-19T16:33:00.999Z,10.33
2018-12-19T16:35:28.479Z,10.32
2018-12-19T16:37:56.033Z,10.25
2018-12-19T16:40:23.514Z,10.24
2018-12-19T16:42:51.000Z,10.26
2018-12-19T16:45:18.480Z,10.38
2018-12-19T16:47:45.936Z,10.47
2018-12-19T16:50:13.403Z,10.53
2018-12-19T16:52:40.854Z,10.47
2018-12-19T16:55:08.448Z,10.52
2018-12-19T16:57:36.113Z,10.64
2018-12-19T17:00:05.763Z,10.75
2018-12-19T17:02:33.205Z,10.55
2018-12-19T17:05:00.761Z,10.37
2018-12-19T17:07:28.219Z,10.23
2018-12-19T17:09:55.711Z,10.19
2018-12-19T17:12:23.151Z,9.97
2018-12-19T17:14:50.667Z,10.03
2018-12-19T17:17:18.158Z,10.11
2018-12-19T17:19:45.610Z,10.19
2018-12-19T17:22:13.097Z,10.24
2018-12-19T17:24:41.132Z,10.29
2018-12-19T17:27:08.630Z,10.43
2018-12-19T17:29:36.135Z,10.53
2018-12-19T17:32:03.893Z,10.62
2018-12-19T17:34:31.375Z,10.84
2018-12-19T17:36:58.884Z,10.69
2018-12-19T17:39:26.351Z,10.40
2018-12-19T17:41:53.791Z,10.21
2018-12-19T17:44:21.274Z,9.89
2018-12-19T17:46:48.777Z,9.89
2018-12-19T17:49:16.220Z,9.96
2018-12-19T17:51:43.687Z,10.07
2018-12-19T17:54:11.181Z,10.23
2018-12-19T17:56:38.645Z,10.35
2018-12-19T17:59:06.136Z,10.36
2018-12-19T18:01:33.630Z,10.36
2018-12-19T18:04:01.067Z,10.41
2018-12-19T18:06:28.574Z,10.47
2018-12-19T18:08:56.015Z,10.59
2018-12-19T18:11:23.493Z,10.62
2018-12-19T18:13:51.278Z,10.51
2018-12-19T18:16:18.751Z,10.32
2018-12-19T18:18:46.355Z,10.24
2018-12-19T18:21:13.881Z,10.19
2018-12-19T18:23:41.300Z,10.15
2018-12-19T18:26:08.737Z,10.12
2018-12-19T18:28:36.236Z,10.15
2018-12-19T18:31:03.900Z,10.24
2018-12-19T18:33:31.433Z,10.31
2018-12-19T18:35:58.916Z,10.40
2018-12-19T18:38:26.397Z,10.42
2018-12-19T18:40:53.867Z,10.50
2018-12-19T18:43:21.312Z,10.59
2018-12-19T18:45:48.823Z,10.73
2018-12-19T18:48:16.277Z,10.63
2018-12-19T18:50:43.782Z,10.42
2018-12-19T18:53:11.275Z,10.35
2018-12-19T18:55:38.726Z,10.27
2018-12-19T18:58:06.236Z,10.16
2018-12-19T19:00:34.840Z,10.13
2018-12-19T19:03:02.465Z,10.23
2018-12-19T19:05:30.016Z,10.25
2018-12-19T19:07:57.580Z,10.33
2018-12-19T19:10:25.112Z,10.36
2018-12-19T19:12:52.622Z,10.37
2018-12-19T19:15:20.087Z,10.35
2018-12-19T19:17:47.572Z,10.38
2018-12-19T19:20:15.052Z,10.44
2018-12-19T19:22:42.526Z,10.47
2018-12-19T19:25:09.997Z,10.31
2018-12-19T19:27:37.467Z,10.17
2018-12-19T19:30:07.122Z,10.02
2018-12-19T19:32:34.583Z,9.80
2018-12-19T19:35:02.163Z,9.67
2018-12-19T19:37:29.668Z,9.63
2018-12-19T19:39:57.128Z,9.68
2018-12-19T19:42:24.588Z,9.73
2018-12-19T19:44:52.067Z,9.63
2018-12-19T19:47:19.541Z,9.69
2018-12-19T19:49:47.007Z,9.74
2018-12-19T19:52:14.554Z,9.75
2018-12-19T19:54:42.032Z,9.75
2018-12-19T19:57:09.473Z,9.71
2018-12-19T19:59:36.963Z,9.52
2018-12-19T20:02:04.423Z,9.38
2018-12-19T20:04:31.899Z,9.32
2018-12-19T20:07:01.110Z,9.28
2018-12-19T20:09:28.797Z,9.25
2018-12-19T20:11:56.257Z,9.19
2018-12-19T20:14:23.744Z,9.21
2018-12-19T20:16:56.827Z,9.22
2018-12-19T20:19:24.308Z,9.30
2018-12-19T20:21:51.858Z,9.18
2018-12-19T20:24:19.344Z,9.12
2018-12-19T20:26:46.797Z,9.15
2018-12-19T20:29:14.544Z,9.19
2018-12-19T20:31:42.058Z,9.42
2018-12-19T20:34:09.560Z,9.29
2018-12-19T20:36:37.033Z,9.07
2018-12-19T20:39:06.717Z,8.80
2018-12-19T20:41:34.164Z,8.65
2018-12-19T20:44:01.649Z,8.37
2018-12-19T20:46:29.204Z,8.33
2018-12-19T20:48:57.342Z,8.47
2018-12-19T20:51:24.813Z,8.62
2018-12-19T20:53:52.317Z,8.80
2018-12-19T20:56:19.917Z,8.91
2018-12-19T20:58:47.560Z,9.03
2018-12-19T21:01:15.314Z,9.06
2018-12-19T21:03:42.808Z,8.98
2018-12-19T21:06:10.277Z,9.01
2018-12-19T21:08:37.894Z,8.93
2018-12-19T21:11:05.374Z,8.55
2018-12-19T21:13:32.859Z,8.23
2018-12-19T21:16:00.424Z,8.04
2018-12-19T21:18:33.648Z,7.99
2018-12-19T21:21:01.202Z,8.04
2018-12-19T21:23:28.654Z,8.22
2018-12-19T21:25:56.158Z,8.59
2018-12-19T21:28:23.628Z,8.82
2018-12-19T21:30:51.083Z,9.03
2018-12-19T21:33:18.519Z,9.10
2018-12-19T21:35:45.986Z,9.17
2018-12-19T21:38:13.474Z,9.19
2018-12-19T21:40:40.987Z,9.28
2018-12-19T21:43:08.581Z,9.43
2018-12-19T21:45:36.132Z,9.10
2018-12-19T21:48:03.594Z,8.77
2018-12-19T21:50:31.230Z,8.55
2018-12-19T21:52:59.224Z,8.47
2018-12-19T21:55:26.810Z,8.28
2018-12-19T21:57:54.428Z,8.32
2018-12-19T22:00:23.884Z,8.49
2018-12-19T22:02:51.552Z,8.69
2018-12-19T22:05:19.236Z,8.89
2018-12-19T22:07:46.753Z,9.02
2018-12-19T22:10:14.229Z,9.10
2018-12-19T22:12:41.699Z,9.10
2018-12-19T22:15:09.314Z,9.21
2018-12-19T22:17:42.849Z,9.34
2018-12-19T22:20:10.504Z,9.22
2018-12-19T22:22:37.992Z,9.04
2018-12-19T22:25:05.581Z,8.87
2018-12-19T22:27:33.964Z,8.80
2018-12-19T22:30:01.538Z,8.59
2018-12-19T22:32:29.126Z,8.63
2018-12-19T22:34:56.583Z,8.73
2018-12-19T22:37:24.110Z,8.85
2018-12-19T22:39:51.824Z,8.90
2018-12-19T22:42:19.361Z,8.99
2018-12-19T22:44:46.974Z,9.02
2018-12-19T22:47:14.924Z,9.06
2018-12-19T22:49:42.398Z,9.12
2018-12-19T22:52:09.893Z,9.18
2018-12-19T22:54:37.432Z,9.25
2018-12-19T22:57:04.986Z,9.07
2018-12-19T22:59:32.674Z,8.91
2018-12-19T23:02:05.625Z,8.67
2018-12-19T23:04:33.214Z,8.59
2018-12-19T23:09:38.495Z,8.58
2018-12-19T23:12:06.168Z,8.63
2018-12-19T23:14:33.614Z,8.65
2018-12-19T23:17:03.205Z,8.76
2018-12-19T23:19:30.800Z,8.76
2018-12-19T23:21:58.392Z,8.78
2018-12-19T23:24:25.847Z,8.88
2018-12-19T23:26:53.550Z,8.86
2018-12-19T23:29:21.255Z,9.00
2018-12-19T23:31:49.008Z,8.93
2018-12-19T23:34:16.492Z,8.68
2018-12-19T23:36:43.961Z,8.39
2018-12-19T23:39:11.443Z,8.05
2018-12-19T23:41:39.037Z,7.73
2018-12-19T23:44:06.607Z,7.75
2018-12-19T23:46:34.525Z,7.98
2018-12-19T23:49:02.128Z,8.17
2018-12-19T23:51:29.687Z,8.35
2018-12-19T23:53:57.386Z,8.37
2018-12-19T23:56:25.064Z,8.38
2018-12-19T23:58:52.550Z,8.52
